| time (UTC) | temp F | wind direction | speed MPH | gust MPH | rain 1hr in | rain 24hr in | rain mn in | humidity % | barometer mb |
| 20260831200825 | 65 | 0.0 | 0.0 | 0.00 | 0.00 | 0.04 | 92 | ||
| 20260831200015 | 64 | 117 | 6.0 | 12.0 | 0.00 | 0.00 | 0.04 | 92 | 1005.3 |
| 20260831195243 | 64 | 78 | 7.0 | 8.0 | 0.00 | 0.00 | 0.04 | 91 | 1005.1 |
| 20260831194342 | 64 | 81 | 6.0 | 14.0 | 0.00 | 0.00 | 0.04 | 91 | 1005.6 |
| 20260831193831 | 64 | 85 | 7.0 | 13.0 | 0.00 | 0.00 | 0.04 | 91 | 1006.3 |
| 20260831193320 | 65 | 73 | 7.0 | 13.0 | 0.00 | 0.00 | 0.04 | 92 | 1007.3 |
| 20260831192812 | 65 | 78 | 3.0 | 11.0 | 0.00 | 0.00 | 0.04 | 92 | 1007.7 |
| 20260831192251 | 65 | 0.0 | 0.0 | 0.00 | 0.00 | 0.04 | 91 | ||
| 20260831191326 | 65 | 80 | 0.0 | 1.0 | 0.00 | 0.00 | 0.04 | 91 | 1009.3 |
| 20260831190810 | 65 | 0.0 | 0.0 | 0.00 | 0.00 | 0.04 | 91 | ||
| 20260831190115 | 65 | 41 | 0.0 | 0.0 | 0.00 | 0.00 | 0.04 | 91 | 1009.7 |
| 20260831185332 | 65 | 0.0 | 0.0 | 0.00 | 0.00 | 0.04 | 91 | ||
| 20260831184309 | 65 | 318 | 0.0 | 0.0 | 0.00 | 0.00 | 0.04 | 91 | 1009.5 |
| 20260831183743 | 65 | 0.0 | 0.0 | 0.00 | 0.00 | 0.04 | 91 | ||
| 20260831182726 | 65 | 260 | 0.0 | 0.0 | 0.00 | 0.00 | 0.03 | 90 | 1009.9 |
| 20260831182226 | 66 | 0.0 | 0.0 | 0.00 | 0.00 | 0.03 | 90 | ||
| 20260831181313 | 66 | 250 | 0.0 | 0.0 | 0.02 | 0.02 | 0.03 | 90 | 1010.0 |
| 20260831180801 | 66 | 0.0 | 0.0 | 0.00 | 0.00 | 0.01 | 90 | ||
| 20260831175741 | 66 | 291 | 0.0 | 0.0 | 0.00 | 0.00 | 0.01 | 90 | 1009.8 |
| 20260831175239 | 66 | 289 | 0.0 | 0.0 | 0.00 | 0.00 | 0.01 | 89 | 1009.8 |
| 20260831174303 | 66 | 278 | 0.0 | 1.0 | 0.00 | 0.00 | 0.01 | 89 | 1009.5 |
| 20260831173802 | 66 | 260 | 0.0 | 0.0 | 0.00 | 0.00 | 0.01 | 89 | 1009.4 |
| 20260831172809 | 67 | 292 | 0.0 | 0.0 | 0.00 | 0.00 | 0.01 | 89 | 1009.1 |
| 20260831172300 | 67 | 0.0 | 0.0 | 0.00 | 0.00 | 0.01 | 88 | ||
| 20260831171715 | 67 | 262 | 0.0 | 0.0 | 0.00 | 0.00 | 0.01 | 88 | 1008.9 |
| 20260831170943 | 67 | 262 | 0.0 | 0.0 | 0.00 | 0.00 | 0.01 | 88 | 1008.9 |
| 20260831170437 | 67 | 260 | 0.0 | 0.0 | 0.00 | 0.00 | 0.01 | 87 | |
| 20260831165600 | 67 | 0.0 | 0.0 | 0.00 | 0.00 | 0.01 | 87 | ||
| 20260831164723 | 67 | 259 | 0.0 | 0.0 | 0.00 | 0.00 | 0.01 | 87 | 1009.2 |
| 20260831163933 | 67 | 0.0 | 0.0 | 0.00 | 0.00 | 0.01 | 86 | ||
| 20260831162911 | 67 | 259 | 0.0 | 0.0 | 0.00 | 0.00 | 0.01 | 86 | 1009.4 |
| 20260831162410 | 67 | 0.0 | 0.0 | 0.00 | 0.00 | 0.01 | 86 | ||
| 20260831161416 | 67 | 259 | 0.0 | 0.0 | 0.00 | 0.00 | 0.01 | 86 | 1009.4 |
| 20260831160903 | 67 | 0.0 | 0.0 | 0.00 | 0.00 | 0.01 | 86 | ||
| 20260831160043 | 67 | 257 | 0.0 | 0.0 | 0.00 | 0.00 | 0.01 | 86 | 1009.3 |
| 20260831155306 | 66 | 0.0 | 0.0 | 0.00 | 0.00 | 0.01 | 86 | ||
| 20260831154332 | 66 | 257 | 0.0 | 1.0 | 0.00 | 0.00 | 0.01 | 86 | 1009.2 |
| 20260831153824 | 66 | 0.0 | 0.0 | 0.00 | 0.00 | 0.01 | 86 | ||
| 20260831152808 | 66 | 146 | 0.0 | 0.0 | 0.00 | 0.00 | 0.01 | 86 | 1009.4 |
| 20260831152306 | 66 | 0.0 | 0.0 | 0.00 | 0.00 | 0.01 | 87 | ||
| 20260831151234 | 66 | 149 | 0.0 | 1.0 | 0.00 | 0.00 | 0.01 | 87 | 1008.8 |
| 20260831150734 | 66 | 0.0 | 0.0 | 0.00 | 0.00 | 0.01 | 87 | ||
| 20260831150042 | 66 | 122 | 0.0 | 1.0 | 0.00 | 0.00 | 0.01 | 87 | 1009.3 |
| 20260831145309 | 66 | 165 | 0.0 | 0.0 | 0.00 | 0.00 | 0.01 | 87 | 1009.4 |
| 20260831144305 | 65 | 165 | 0.0 | 0.0 | 0.00 | 0.00 | 0.01 | 87 | 1009.7 |
| 20260831143807 | 65 | 0.0 | 0.0 | 0.00 | 0.00 | 0.01 | 87 | ||
| 20260831142807 | 65 | 127 | 1.0 | 2.0 | 0.00 | 0.00 | 0.01 | 87 | 1010.3 |
| 20260831142308 | 65 | 0.0 | 0.0 | 0.00 | 0.00 | 0.01 | 87 | ||
| 20260831141320 | 65 | 136 | 2.0 | 9.0 | 0.00 | 0.00 | 0.01 | 87 | 1009.9 |
| 20260831140820 | 65 | 0.0 | 0.0 | 0.00 | 0.00 | 0.01 | 86 | ||
| 20260831135805 | 65 | 175 | 2.0 | 10.0 | 0.00 | 0.00 | 0.01 | 86 | 1009.9 |
| 20260831135306 | 65 | 0.0 | 0.0 | 0.00 | 0.00 | 0.01 | 86 | ||
| 20260831134349 | 66 | 152 | 0.0 | 2.0 | 0.00 | 0.00 | 0.01 | 86 | 1010.8 |
| 20260831133839 | 66 | 0.0 | 0.0 | 0.00 | 0.00 | 0.01 | 86 | ||
| 20260831132814 | 66 | 208 | 1.0 | 7.0 | 0.00 | 0.00 | 0.01 | 86 | 1010.6 |
| 20260831132256 | 66 | 0.0 | 0.0 | 0.00 | 0.00 | 0.01 | 86 | ||
| 20260831131330 | 66 | 125 | 0.0 | 2.0 | 0.00 | 0.00 | 0.01 | 86 | 1010.5 |
| 20260831130822 | 65 | 0.0 | 0.0 | 0.00 | 0.00 | 0.01 | 86 | ||
| 20260831130125 | 65 | 131 | 0.0 | 4.0 | 0.00 | 0.00 | 0.01 | 86 | 1010.6 |
| 20260831125337 | 65 | 0.0 | 0.0 | 0.00 | 0.00 | 0.01 | 87 | ||
| 20260831124310 | 65 | 108 | 0.0 | 2.0 | 0.00 | 0.00 | 0.01 | 87 | 1011.1 |
| 20260831123759 | 65 | 0.0 | 0.0 | 0.00 | 0.00 | 0.01 | 88 | ||
| 20260831122725 | 65 | 112 | 0.0 | 1.0 | 0.00 | 0.00 | 0.01 | 88 | 1010.8 |
| 20260831122209 | 64 | 191 | 0.0 | 0.0 | 0.00 | 0.00 | 0.01 | 89 | 1010.6 |
| 20260831121343 | 64 | 191 | 0.0 | 0.0 | 0.00 | 0.00 | 0.01 | 89 | 1010.9 |
| 20260831120832 | 64 | 0.0 | 0.0 | 0.00 | 0.00 | 0.01 | 90 | ||
| 20260831115800 | 64 | 191 | 0.0 | 0.0 | 0.00 | 0.00 | 0.01 | 90 | 1010.9 |
| 20260831115241 | 63 | 0.0 | 0.0 | 0.00 | 0.00 | 0.01 | 90 | ||
| 20260831114534 | 63 | 0.0 | 0.0 | 0.00 | 0.00 | 0.01 | 91 | ||
| 20260831114409 | 63 | 191 | 0.0 | 0.0 | 0.00 | 0.00 | 0.01 | 90 | 1010.8 |
| 20260831112807 | 63 | 191 | 0.0 | 0.0 | 0.00 | 0.00 | 0.01 | 91 | 1011.1 |
| 20260831112307 | 62 | 0.0 | 0.0 | 0.00 | 0.00 | 0.01 | 91 | ||
| 20260831111514 | 62 | 191 | 0.0 | 0.0 | 0.00 | 0.00 | 0.01 | 91 | 1011.0 |
| 20260831110740 | 62 | 0.0 | 0.0 | 0.00 | 0.00 | 0.01 | 91 | ||
| 20260831105825 | 62 | 192 | 0.0 | 0.0 | 0.01 | 0.01 | 0.01 | 91 | 1011.0 |
| 20260831105325 | 62 | 0.0 | 0.0 | 0.00 | 0.00 | 0.00 | 91 | ||
| 20260831104246 | 62 | 63 | 0.0 | 0.0 | 0.00 | 0.00 | 0.00 | 91 | 1011.1 |
| 20260831104240 | 62 | 0.0 | 0.0 | 0.00 | 0.00 | 0.00 | 91 | ||
| 20260831102811 | 62 | 62 | 0.0 | 0.0 | 0.00 | 0.00 | 0.00 | 91 | 1010.8 |
| 20260831102255 | 62 | 0.0 | 0.0 | 0.00 | 0.00 | 0.00 | 91 | ||
| 20260831101233 | 62 | 62 | 0.0 | 0.0 | 0.00 | 0.00 | 0.00 | 91 | 1010.8 |
| 20260831100731 | 62 | 62 | 0.0 | 0.0 | 0.00 | 0.00 | 0.00 | 91 | 1010.6 |
| 20260831100058 | 62 | 62 | 0.0 | 0.0 | 0.00 | 0.00 | 0.00 | 91 | 1010.8 |
| 20260831095545 | 62 | 0.0 | 0.0 | 0.00 | 0.00 | 0.00 | 92 | ||
| 20260831094245 | 62 | 62 | 0.0 | 1.0 | 0.00 | 0.00 | 0.00 | 92 | 1011.0 |
| 20260831093738 | 62 | 0.0 | 0.0 | 0.00 | 0.00 | 0.00 | 92 | ||
| 20260831092824 | 61 | 138 | 0.0 | 1.0 | 0.00 | 0.00 | 0.00 | 92 | 1009.9 |
| 20260831092301 | 61 | 0.0 | 0.0 | 0.00 | 0.00 | 0.00 | 92 | ||
| 20260831091611 | 61 | 101 | 0.0 | 2.0 | 0.00 | 0.00 | 0.00 | 92 | 1010.2 |
| 20260831090840 | 61 | 0.0 | 0.0 | 0.00 | 0.00 | 0.00 | 92 | ||
| 20260831085942 | 61 | 107 | 1.0 | 3.0 | 0.00 | 0.00 | 0.00 | 92 | 1009.5 |
| 20260831085203 | 61 | 99 | 0.0 | 0.0 | 0.00 | 0.00 | 0.00 | 92 | 1009.6 |
| 20260831084239 | 61 | 131 | 0.0 | 1.0 | 0.00 | 0.00 | 0.00 | 92 | 1009.6 |
| 20260831083738 | 61 | 0.0 | 0.0 | 0.00 | 0.00 | 0.00 | 92 | ||
| 20260831082816 | 61 | 124 | 0.0 | 2.0 | 0.00 | 0.00 | 0.00 | 92 | 1010.0 |
| 20260831082311 | 61 | 0.0 | 0.0 | 0.00 | 0.00 | 0.00 | 93 | ||
| 20260831081252 | 61 | 166 | 0.0 | 1.0 | 0.00 | 0.00 | 0.00 | 93 | 1010.0 |
| 20260831080747 | 60 | 0.0 | 0.0 | 0.00 | 0.00 | 0.00 | 92 | ||
| 20260831075831 | 60 | 102 | 0.0 | 0.0 | 0.00 | 0.00 | 0.00 | 92 | 1010.3 |
| 20260831075330 | 60 | 0.0 | 0.0 | 0.00 | 0.00 | 0.00 | 92 | ||
| 20260831074230 | 60 | 297 | 0.0 | 0.0 | 0.00 | 0.00 | 0.00 | 92 | 1010.8 |
| 20260831074000 | 60 | 0.0 | 0.0 | 0.00 | 0.00 | 0.00 | 92 | ||
| 20260831072817 | 60 | 297 | 0.0 | 0.0 | 0.00 | 0.00 | 0.00 | 92 | 1010.9 |
| 20260831072318 | 60 | 0.0 | 0.0 | 0.00 | 0.00 | 0.00 | 92 | ||
| 20260831071258 | 60 | 297 | 0.0 | 0.0 | 0.00 | 0.00 | 0.00 | 92 | 1011.0 |
| 20260831070757 | 60 | 0.0 | 0.0 | 0.00 | 0.00 | 0.00 | 92 | ||
| 20260831065831 | 60 | 297 | 0.0 | 0.0 | 0.00 | 0.00 | 0.00 | 92 | 1011.4 |
| 20260831065326 | 60 | 0.0 | 0.0 | 0.00 | 0.00 | 0.00 | 92 | ||
| 20260831064305 | 60 | 297 | 0.0 | 0.0 | 0.00 | 0.00 | 0.00 | 92 | 1011.3 |
| 20260831063756 | 60 | 0.0 | 0.0 | 0.00 | 0.00 | 0.00 | 92 | ||
| 20260831062829 | 60 | 294 | 0.0 | 0.0 | 0.00 | 0.00 | 0.00 | 92 | 1011.4 |
| 20260831062326 | 60 | 0.0 | 0.0 | 0.00 | 0.00 | 0.00 | 92 | ||
| 20260831061307 | 60 | 294 | 0.0 | 0.0 | 0.00 | 0.00 | 0.00 | 92 | 1011.5 |
| 20260831060806 | 61 | 294 | 0.0 | 0.0 | 0.00 | 0.00 | 0.00 | 91 | 1011.4 |
| 20260831060045 | 61 | 294 | 0.0 | 0.0 | 0.00 | 0.00 | 0.00 | 91 | 1011.7 |
| 20260831055306 | 61 | 0.0 | 0.0 | 0.00 | 0.00 | 0.00 | 91 | ||
| 20260831054241 | 61 | 294 | 0.0 | 0.0 | 0.00 | 0.00 | 0.00 | 91 | 1012.1 |
| 20260831053729 | 61 | 0.0 | 0.0 | 0.00 | 0.00 | 0.00 | 91 | ||
| 20260831052507 | 61 | 296 | 0.0 | 0.0 | 0.00 | 0.00 | 0.00 | 91 | 1012.2 |
| 20260831052005 | 61 | 175 | 0.0 | 0.0 | 0.00 | 0.00 | 0.00 | 91 | 1011.9 |
| 20260831051241 | 61 | 175 | 0.0 | 0.0 | 0.00 | 0.00 | 0.00 | 91 | 1011.8 |
| 20260831050741 | 62 | 0.0 | 0.0 | 0.00 | 0.00 | 0.00 | 91 | ||
| 20260831045816 | 62 | 146 | 0.0 | 0.0 | 0.00 | 0.00 | 0.00 | 91 | 1011.5 |
| 20260831045305 | 62 | 92 | 0.0 | 0.0 | 0.00 | 0.00 | 0.00 | 91 | 1011.5 |
| 20260831044407 | 62 | 93 | 0.0 | 0.0 | 0.00 | 0.00 | 0.00 | 91 | 1011.8 |
| 20260831043902 | 62 | 0.0 | 0.0 | 0.00 | 0.00 | 0.00 | 90 | 1012.0 | |
| 20260831042757 | 62 | 41 | 0.0 | 0.0 | 0.00 | 0.00 | 0.00 | 90 | 1012.5 |
| 20260831042252 | 62 | 0.0 | 0.0 | 0.00 | 0.00 | 0.00 | 90 | ||
| 20260831041322 | 62 | 41 | 0.0 | 0.0 | 0.00 | 0.00 | 0.00 | 90 | 1012.6 |
| 20260831040812 | 62 | 0.0 | 0.0 | 0.00 | 0.00 | 0.00 | 90 | ||
| 20260831035849 | 62 | 41 | 0.0 | 0.0 | 0.00 | 0.00 | 0.00 | 90 | 1012.6 |
| 20260831035339 | 63 | 0.0 | 0.0 | 0.00 | 0.00 | 0.00 | 90 | ||
| 20260831034312 | 63 | 41 | 0.0 | 0.0 | 0.00 | 0.00 | 0.00 | 90 | 1012.0 |
| 20260831033803 | 63 | 0.0 | 0.0 | 0.00 | 0.00 | 0.00 | 90 | ||
| 20260831033110 | 63 | 193 | 0.0 | 0.0 | 0.00 | 0.00 | 0.00 | 90 | 1012.6 |
| 20260831032328 | 63 | 0.0 | 0.0 | 0.00 | 0.00 | 0.00 | 89 | ||
| 20260831031353 | 63 | 175 | 0.0 | 0.0 | 0.00 | 0.00 | 0.00 | 89 | 1012.7 |
| 20260831030843 | 63 | 0.0 | 0.0 | 0.00 | 0.00 | 0.00 | 89 | ||
| 20260831025257 | 63 | 0.0 | 0.0 | 0.00 | 0.00 | 0.04 | 89 | ||
| 20260831024510 | 63 | 86 | 0.0 | 1.0 | 0.00 | 0.00 | 0.04 | 89 | 1012.7 |
| 20260831023738 | 63 | 0.0 | 0.0 | 0.00 | 0.00 | 0.04 | 90 | ||
| 20260831022554 | 63 | 0.0 | 0.0 | 0.00 | 0.00 | 0.04 | 90 | ||
| 20260831021250 | 63 | 79 | 0.0 | 6.0 | 0.00 | 0.00 | 0.04 | 90 | 1012.9 |
| 20260831020742 | 63 | 0.0 | 0.0 | 0.00 | 0.00 | 0.04 | 90 | ||
| 20260831015816 | 63 | 81 | 3.0 | 8.0 | 0.00 | 0.00 | 0.04 | 90 | 1013.1 |
| 20260831015258 | 63 | 0.0 | 0.0 | 0.00 | 0.00 | 0.04 | 90 | ||
| 20260831014434 | 63 | 110 | 2.0 | 9.0 | 0.00 | 0.00 | 0.04 | 90 | 1012.9 |
| 20260831013915 | 63 | 0.0 | 0.0 | 0.00 | 0.00 | 0.04 | 90 | ||
| 20260831012840 | 63 | 66 | 0.0 | 0.0 | 0.00 | 0.00 | 0.04 | 90 | 1013.2 |
| 20260831012330 | 63 | 80 | 1.0 | 7.0 | 0.00 | 0.00 | 0.04 | 90 | 1013.3 |
| 20260831011820 | 63 | 113 | 2.0 | 6.0 | 0.00 | 0.00 | 0.04 | 90 | 1013.3 |
| 20260831011316 | 63 | 107 | 3.0 | 6.0 | 0.00 | 0.00 | 0.04 | 90 | 1013.4 |
| 20260831010816 | 63 | 0.0 | 0.0 | 0.00 | 0.00 | 0.04 | 90 | ||
| 20260831005746 | 63 | 135 | 3.0 | 12.0 | 0.00 | 0.00 | 0.04 | 90 | 1013.2 |
| 20260831005244 | 64 | 0.0 | 0.0 | 0.00 | 0.00 | 0.04 | 90 | ||
| 20260831004315 | 64 | 125 | 0.0 | 5.0 | 0.00 | 0.00 | 0.04 | 90 | 1013.9 |
| 20260831004025 | 64 | 0.0 | 0.0 | 0.00 | 0.00 | 0.04 | 90 | ||
| 20260831002839 | 64 | 134 | 0.0 | 1.0 | 0.00 | 0.00 | 0.04 | 90 | 1014.2 |
| 20260831002337 | 64 | 0.0 | 0.0 | 0.00 | 0.00 | 0.04 | 89 | ||
| 20260831001311 | 64 | 108 | 1.0 | 8.0 | 0.00 | 0.00 | 0.04 | 89 | 1014.0 |
| 20260831000754 | 64 | 0.0 | 0.0 | 0.00 | 0.00 | 0.04 | 89 | ||
| 20260830235744 | 65 | 0.0 | 0.0 | 0.00 | 0.00 | 0.02 | 88 | ||
| 20260830235737 | 65 | 167 | 1.0 | 6.0 | 0.02 | 0.02 | 0.04 | 89 | 1014.5 |
| 20260830234323 | 65 | 115 | 8.0 | 14.0 | 0.02 | 0.02 | 0.02 | 88 | 1015.5 |
| 20260830233809 | 65 | 0.0 | 0.0 | 0.00 | 0.00 | 0.00 | 88 | ||
| 20260830232845 | 65 | 216 | 7.0 | 17.0 | 0.00 | 0.00 | 0.00 | 88 | 1015.9 |
| 20260830232335 | 65 | 0.0 | 0.0 | 0.00 | 0.00 | 0.00 | 88 | ||
| 20260830231309 | 65 | 136 | 3.0 | 6.0 | 0.00 | 0.00 | 0.00 | 88 | 1011.7 |
| 20260830231029 | 65 | 0.0 | 0.0 | 0.00 | 0.00 | 0.00 | 88 | ||
| 20260830225734 | 65 | 120 | 2.0 | 9.0 | 0.00 | 0.00 | 0.00 | 88 | 1011.2 |
| 20260830225228 | 65 | 175 | 2.0 | 0.0 | 0.00 | 0.00 | 0.00 | 88 | 1011.4 |
| 20260830224547 | 65 | 92 | 4.0 | 11.0 | 0.00 | 0.00 | 0.00 | 87 | 1011.3 |
| 20260830223801 | 66 | 0.0 | 0.0 | 0.00 | 0.00 | 0.00 | 87 | ||
| 20260830222829 | 66 | 120 | 1.0 | 8.0 | 0.00 | 0.00 | 0.00 | 87 | 1011.8 |
| 20260830222314 | 66 | 0.0 | 0.0 | 0.00 | 0.00 | 0.00 | 86 | ||
| 20260830221849 | 66 | 151 | 0.0 | 0.0 | 0.00 | 0.00 | 0.00 | 86 | 1012.3 |
| 20260830220837 | 66 | 0.0 | 0.0 | 0.00 | 0.00 | 0.00 | 86 | ||
| 20260830215809 | 66 | 159 | 2.0 | 3.0 | 0.00 | 0.00 | 0.00 | 86 | 1012.6 |
| 20260830215254 | 66 | 0.0 | 0.0 | 0.00 | 0.00 | 0.00 | 86 | ||
| 20260830214236 | 66 | 185 | 2.0 | 15.0 | 0.00 | 0.00 | 0.00 | 86 | 1011.1 |
| 20260830213506 | 67 | 111 | 3.0 | 9.0 | 0.00 | 0.00 | 0.00 | 86 | |
| 20260830212833 | 67 | 131 | 2.0 | 8.0 | 0.00 | 0.00 | 0.00 | 86 | 1010.9 |
| 20260830212326 | 67 | 0.0 | 0.0 | 0.00 | 0.00 | 0.00 | 85 | ||
| 20260830211958 | 67 | 147 | 0.0 | 1.0 | 0.00 | 0.00 | 0.00 | 85 | 1011.3 |
| 20260830210725 | 67 | 127 | 0.0 | 0.0 | 0.00 | 0.00 | 0.00 | 85 | 1011.2 |
| 20260830205821 | 67 | 140 | 1.0 | 7.0 | 0.00 | 0.00 | 0.00 | 85 | 1012.1 |
| 20260830205318 | 67 | 0.0 | 0.0 | 0.00 | 0.00 | 0.00 | 84 | ||
| 20260830204540 | 67 | 149 | 1.0 | 1.0 | 0.00 | 0.00 | 0.00 | 84 | 1013.0 |
| 20260830203755 | 68 | 0.0 | 0.0 | 0.00 | 0.00 | 0.00 | 84 | ||
| 20260830202837 | 68 | 107 | 3.0 | 9.0 | 0.00 | 0.00 | 0.00 | 84 | 1010.7 |
| 20260830202331 | 68 | 0.0 | 0.0 | 0.00 | 0.00 | 0.00 | 84 | ||
| 20260830201313 | 68 | 110 | 2.0 | 4.0 | 0.00 | 0.00 | 0.00 | 84 | 1011.5 |